Hlavní strana
METAR-TAF:

METAR-TAF

Letiště :

Letiště Maribor

Maribor, Slovinsko

zeměpisná šířka: 46-29N, zeměpisná délka: 015-41E, výška: 264 m

Aktuální stav počasí

Zpráva byla vytvořena před 31 minutami, v 15:30 UTC
Severoseverovýchodní vítr 8 kt
Teplota 9°C
Vlhkost vzduchu 34%
Tlak 1033 hPa
Viditelnost 10 km a více
Žádná oblačnost pod 1500 m, nevyskytují se cumulonimby.

METAR: LJMB 201530Z 03008KT CAVOK 09/M06 Q1033

Čas: 17:01 (16:01 UTC)

Předpověď počasí

Zpráva byla vytvořena před 2 hodinami a 1 minutami, v 14:00 UTC
Předpověď platná od 20 v 15 UTC do 21 v 15 UTC
Severní vítr 5 kt
Viditelnost 10 km a více
Žádná oblačnost pod 1500 m, nevyskytují se cumulonimby.
Dočasný
od 20 v 15 UTC do 20 v 18 UTC
Severní vítr 12 kt

TAF: LJMB 201400Z 2015/2115 01005KT CAVOK TEMPO 2015/2018 01012KT

Stav a předpovědi počasí z více než 4 000 letišť (zprávy METAR a TAF).

Červené a žluté tečky na mapě představují dostupné meteorologické stanice.

Když kurzor umístíte na tečku, zobrazí se název stanice.

Pak kliknutím zobrazíte stav a předpověď počasí.

Chcete-li změnit mapu, kliknutím na zelené tlačítko se znaménkem +mapu přiblížíte, kliknutím na zelené tlačítko se znaménkem – mapu oddálíte a kliknutím na zelené šipky přejdete na sousední mapy.


METAR-TAF: